createdAt,value
2019-04-03T00:01:11.830Z,17.37
2019-04-03T00:03:40.355Z,17.50
2019-04-03T00:06:08.815Z,17.07
2019-04-03T00:08:37.272Z,15.83
2019-04-03T00:11:08.650Z,15.38
2019-04-03T00:13:35.979Z,15.77
2019-04-03T00:16:04.559Z,16.35
2019-04-03T00:18:33.008Z,15.40
2019-04-03T00:21:01.490Z,15.98
2019-04-03T00:23:30.059Z,15.32
2019-04-03T00:25:58.698Z,15.50
2019-04-03T00:28:27.248Z,15.68
2019-04-03T00:30:55.692Z,15.80
2019-04-03T00:33:24.242Z,16.67
2019-04-03T00:35:53.644Z,15.05
2019-04-03T00:38:23.926Z,15.32
2019-04-03T00:40:54.287Z,15.40
2019-04-03T00:43:24.302Z,16.57
2019-04-03T00:45:54.559Z,15.63
2019-04-03T00:48:25.050Z,14.43
2019-04-03T00:50:56.318Z,14.67
2019-04-03T00:53:23.635Z,14.43
2019-04-03T00:55:52.147Z,13.70
2019-04-03T00:58:35.560Z,15.60
2019-04-03T01:01:05.938Z,14.73
2019-04-03T01:03:34.388Z,14.73
2019-04-03T01:06:02.936Z,15.35
2019-04-03T01:08:31.517Z,15.23
2019-04-03T01:11:00.451Z,15.10
2019-04-03T01:13:29.760Z,15.08
2019-04-03T01:16:02.009Z,14.70
2019-04-03T01:18:30.080Z,15.10
2019-04-03T01:20:58.724Z,15.05
2019-04-03T01:23:27.263Z,15.18
2019-04-03T01:25:55.700Z,14.83
2019-04-03T01:28:24.264Z,14.80
2019-04-03T01:30:52.843Z,14.98
2019-04-03T01:33:21.295Z,14.60
2019-04-03T01:35:49.925Z,15.65
2019-04-03T01:38:19.482Z,14.53
2019-04-03T01:40:48.911Z,16.07
2019-04-03T01:43:18.579Z,16.03
2019-04-03T01:45:47.070Z,14.53
2019-04-03T01:48:15.540Z,15.72
2019-04-03T01:50:44.177Z,16.67
2019-04-03T01:53:12.635Z,15.83
2019-04-03T01:55:41.081Z,15.95
2019-04-03T01:58:11.019Z,15.80
2019-04-03T02:00:39.553Z,16.40
2019-04-03T02:03:09.762Z,15.60
2019-04-03T02:05:38.270Z,16.50
2019-04-03T02:08:06.779Z,16.15
2019-04-03T02:10:35.295Z,16.40
2019-04-03T02:13:03.783Z,17.80
2019-04-03T02:15:32.293Z,16.93
2019-04-03T02:18:00.779Z,16.95
2019-04-03T02:20:29.280Z,17.32
2019-04-03T02:23:00.430Z,17.48
2019-04-03T02:25:28.158Z,17.20
2019-04-03T02:27:56.628Z,16.52
2019-04-03T02:30:25.142Z,16.95
2019-04-03T02:32:56.338Z,17.12
2019-04-03T02:35:23.788Z,17.27
2019-04-03T02:37:52.391Z,17.45
2019-04-03T02:40:21.000Z,18.05
2019-04-03T02:42:49.509Z,17.62
2019-04-03T02:45:18.022Z,17.80
2019-04-03T02:47:46.554Z,18.50
2019-04-03T02:50:25.726Z,16.80
2019-04-03T02:52:58.067Z,17.82
2019-04-03T02:57:53.608Z,17.73
2019-04-03T03:00:22.205Z,18.05
2019-04-03T03:02:54.510Z,17.07
2019-04-03T03:05:26.636Z,18.20
2019-04-03T03:07:53.349Z,17.95
2019-04-03T03:10:21.937Z,17.15
2019-04-03T03:12:50.862Z,17.90
2019-04-03T03:15:20.446Z,18.07
2019-04-03T03:17:49.625Z,18.75
2019-04-03T03:20:21.166Z,19.67
2019-04-03T03:22:51.791Z,18.98
2019-04-03T03:25:20.516Z,19.67
2019-04-03T03:27:49.305Z,19.48
2019-04-03T03:30:37.142Z,20.02
2019-04-03T03:32:49.408Z,19.75
2019-04-03T03:35:26.601Z,21.27
2019-04-03T03:37:49.652Z,21.80
2019-04-03T03:40:18.246Z,23.65
2019-04-03T03:42:47.551Z,22.40
2019-04-03T03:45:19.492Z,21.65
2019-04-03T03:47:50.034Z,20.92
2019-04-03T03:50:26.026Z,23.25
2019-04-03T03:52:56.618Z,22.67
2019-04-03T03:55:25.760Z,22.67
2019-04-03T03:57:55.281Z,22.10
2019-04-03T04:00:24.639Z,21.12
2019-04-03T04:02:54.027Z,20.68
2019-04-03T04:05:23.137Z,20.95
2019-04-03T04:07:52.072Z,20.05
2019-04-03T04:10:24.078Z,20.52
2019-04-03T04:12:51.486Z,20.70
2019-04-03T04:15:20.140Z,21.70
2019-04-03T04:17:50.979Z,21.75
2019-04-03T04:20:18.858Z,23.10
2019-04-03T04:22:50.759Z,24.00
2019-04-03T04:25:18.817Z,22.22
2019-04-03T04:27:49.850Z,23.45
2019-04-03T04:30:19.832Z,21.93
2019-04-03T04:32:48.273Z,22.62
2019-04-03T04:35:16.734Z,21.87
2019-04-03T04:37:45.358Z,22.93
2019-04-03T04:40:13.934Z,22.52
2019-04-03T04:42:42.403Z,23.57
2019-04-03T04:45:11.884Z,22.95
2019-04-03T04:47:40.890Z,21.85
2019-04-03T04:50:09.386Z,23.70
2019-04-03T04:52:37.903Z,24.05
2019-04-03T04:55:06.598Z,23.47
2019-04-03T04:57:35.401Z,22.00
2019-04-03T05:00:06.601Z,22.65
2019-04-03T05:05:02.965Z,22.15
2019-04-03T05:07:31.488Z,22.40
2019-04-03T05:10:00.138Z,23.65
2019-04-03T05:12:28.640Z,21.90
2019-04-03T05:14:57.096Z,21.12
2019-04-03T05:17:27.272Z,19.67
2019-04-03T05:19:56.059Z,20.57
2019-04-03T05:22:25.567Z,21.20
2019-04-03T05:24:54.084Z,21.90
2019-04-03T05:27:22.636Z,22.17
2019-04-03T05:29:51.137Z,22.75
2019-04-03T05:32:19.812Z,23.45
2019-04-03T05:34:48.345Z,21.97
2019-04-03T05:37:18.057Z,25.17
2019-04-03T05:39:47.110Z,24.03
2019-04-03T05:42:15.576Z,22.52
2019-04-03T05:44:44.079Z,22.35
2019-04-03T05:47:12.700Z,21.80
2019-04-03T05:49:41.237Z,21.65
2019-04-03T05:52:09.736Z,21.45
2019-04-03T05:54:39.376Z,20.72
2019-04-03T05:57:08.423Z,20.08
2019-04-03T05:59:36.869Z,20.88
2019-04-03T06:02:14.678Z,19.98
2019-04-03T06:04:35.929Z,21.07
2019-04-03T06:07:04.770Z,21.27
2019-04-03T06:09:33.318Z,20.52
2019-04-03T06:12:01.798Z,21.75
2019-04-03T06:14:30.313Z,20.88
2019-04-03T06:16:58.760Z,20.70
2019-04-03T06:19:27.237Z,22.07
2019-04-03T06:21:55.685Z,21.17
2019-04-03T06:24:24.730Z,20.17
2019-04-03T06:26:53.741Z,21.70
2019-04-03T06:29:22.498Z,20.17
2019-04-03T06:31:50.985Z,19.27
2019-04-03T06:34:19.485Z,21.05
2019-04-03T06:36:50.172Z,20.68
2019-04-03T06:39:22.168Z,21.97
2019-04-03T06:41:48.283Z,20.53
2019-04-03T06:44:16.727Z,20.77
2019-04-03T06:46:45.208Z,19.87
2019-04-03T06:49:14.400Z,19.23
2019-04-03T06:51:43.241Z,20.25
2019-04-03T06:54:11.721Z,20.80
2019-04-03T06:56:41.178Z,19.60
2019-04-03T06:59:09.808Z,18.85
2019-04-03T07:01:38.276Z,19.37
2019-04-03T07:04:07.227Z,18.98
2019-04-03T07:06:35.770Z,18.60
2019-04-03T07:12:31.922Z,18.32
2019-04-03T07:15:00.409Z,19.27
2019-04-03T07:17:31.421Z,18.95
2019-04-03T07:20:12.075Z,18.33
2019-04-03T07:22:29.218Z,17.97
2019-04-03T07:24:57.657Z,18.48
2019-04-03T07:27:26.144Z,16.93
2019-04-03T07:29:54.865Z,17.98
2019-04-03T07:32:25.302Z,18.62
2019-04-03T07:34:53.693Z,17.02
2019-04-03T07:37:22.183Z,16.70
2019-04-03T07:39:50.624Z,16.93
2019-04-03T07:42:19.080Z,17.00
2019-04-03T07:44:47.552Z,17.45
2019-04-03T07:47:17.566Z,17.90
2019-04-03T07:49:48.837Z,17.40
2019-04-03T07:52:17.837Z,16.05
2019-04-03T07:54:46.401Z,17.05
2019-04-03T07:57:16.386Z,17.17
2019-04-03T07:59:45.390Z,17.98
2019-04-03T08:02:14.085Z,17.77
2019-04-03T08:04:42.717Z,17.48
2019-04-03T08:07:11.237Z,16.23
2019-04-03T08:09:39.873Z,17.62
2019-04-03T08:12:08.345Z,16.67
2019-04-03T08:14:36.785Z,16.48
2019-04-03T08:17:05.316Z,18.02
2019-04-03T08:19:33.784Z,16.77
2019-04-03T08:22:02.507Z,17.15
2019-04-03T08:24:31.281Z,15.95
2019-04-03T08:26:59.800Z,17.50
2019-04-03T08:29:28.248Z,19.00
2019-04-03T08:31:56.907Z,18.10
2019-04-03T08:34:25.454Z,17.50
2019-04-03T08:36:54.190Z,16.93
2019-04-03T08:39:22.816Z,18.35
2019-04-03T08:41:51.396Z,17.98
2019-04-03T08:44:19.836Z,18.02
2019-04-03T08:46:48.634Z,18.50
2019-04-03T08:49:17.166Z,18.25
2019-04-03T08:51:45.760Z,18.17
2019-04-03T08:54:14.468Z,15.75
2019-04-03T08:56:43.184Z,18.25
2019-04-03T08:59:13.549Z,16.12
2019-04-03T09:01:42.123Z,14.95
2019-04-03T09:04:10.823Z,15.20
2019-04-03T09:06:39.575Z,13.55
2019-04-03T09:09:10.377Z,11.48
2019-04-03T09:11:39.039Z,10.95
2019-04-03T09:14:07.922Z,10.48
2019-04-03T09:16:37.109Z,10.90
2019-04-03T09:19:05.582Z,11.22
2019-04-03T09:21:34.031Z,11.22
2019-04-03T09:24:02.618Z,11.95
2019-04-03T09:26:34.913Z,11.45
2019-04-03T09:29:01.251Z,10.75
2019-04-03T09:31:29.806Z,10.45
2019-04-03T09:33:58.640Z,10.63
2019-04-03T09:36:27.163Z,11.53
2019-04-03T09:38:55.667Z,9.55
2019-04-03T09:41:24.161Z,10.53
2019-04-03T09:43:54.282Z,7.70
2019-04-03T09:46:22.792Z,7.50
2019-04-03T09:48:51.627Z,7.97
2019-04-03T09:51:26.223Z,8.88
2019-04-03T09:53:57.106Z,9.60
2019-04-03T09:56:24.852Z,9.25
2019-04-03T09:58:55.899Z,8.80
2019-04-03T10:01:23.453Z,9.33
2019-04-03T10:03:53.899Z,10.03
2019-04-03T10:06:22.170Z,10.10
2019-04-03T10:08:50.685Z,10.55
2019-04-03T10:11:20.387Z,11.10
2019-04-03T10:13:49.344Z,10.48
2019-04-03T10:16:17.794Z,10.50
2019-04-03T10:18:46.341Z,10.68
2019-04-03T10:21:14.786Z,10.20
2019-04-03T10:23:43.352Z,10.25
2019-04-03T10:26:12.189Z,10.15
2019-04-03T10:28:42.552Z,9.43
2019-04-03T10:31:10.816Z,10.00
2019-04-03T10:33:39.292Z,9.30
2019-04-03T10:36:10.255Z,9.55
2019-04-03T10:38:37.958Z,7.97
2019-04-03T10:41:06.416Z,7.83
2019-04-03T10:43:36.919Z,7.47
2019-04-03T10:46:05.209Z,7.42
2019-04-03T10:48:33.733Z,7.55
2019-04-03T10:51:02.170Z,7.53
2019-04-03T10:53:30.829Z,7.37
2019-04-03T10:55:59.840Z,6.87
2019-04-03T10:58:29.118Z,6.72
2019-04-03T11:00:59.088Z,6.65
2019-04-03T11:03:27.879Z,6.35
2019-04-03T11:05:56.384Z,5.42
2019-04-03T11:08:24.820Z,5.33
2019-04-03T11:10:53.376Z,4.50
2019-04-03T11:13:21.804Z,4.97
2019-04-03T11:15:50.421Z,5.35
2019-04-03T11:18:21.099Z,6.37
2019-04-03T11:20:49.135Z,5.90
2019-04-03T11:23:18.098Z,6.30
2019-04-03T11:25:48.001Z,6.15
2019-04-03T11:28:16.564Z,5.70
2019-04-03T11:30:45.359Z,6.58
2019-04-03T11:33:14.085Z,6.62
2019-04-03T11:35:43.602Z,7.90
2019-04-03T11:38:16.948Z,7.95
2019-04-03T11:40:42.293Z,7.00
2019-04-03T11:43:10.936Z,8.40
2019-04-03T11:45:39.751Z,8.58
2019-04-03T11:48:08.364Z,8.48
2019-04-03T11:50:39.450Z,8.35
2019-04-03T11:53:07.753Z,8.55
2019-04-03T11:55:36.300Z,8.98
2019-04-03T11:58:04.983Z,8.78
2019-04-03T12:00:35.233Z,8.88
2019-04-03T12:03:04.544Z,8.55
2019-04-03T12:05:33.032Z,6.08
2019-04-03T12:08:01.698Z,5.47
2019-04-03T12:10:30.206Z,5.37
2019-04-03T12:12:58.647Z,6.15
2019-04-03T12:15:27.080Z,6.85
2019-04-03T12:17:55.612Z,7.03
2019-04-03T12:20:24.062Z,6.62
2019-04-03T12:22:57.080Z,6.62
2019-04-03T12:25:25.544Z,7.72
2019-04-03T12:27:53.987Z,7.47
2019-04-03T12:30:22.661Z,8.33
2019-04-03T12:32:51.435Z,6.70
2019-04-03T12:35:19.864Z,5.42
2019-04-03T12:37:50.195Z,6.50
2019-04-03T12:40:18.695Z,5.67
2019-04-03T12:42:47.215Z,5.97
2019-04-03T12:45:17.864Z,5.85
2019-04-03T12:47:46.087Z,6.10
2019-04-03T12:50:15.964Z,5.08
2019-04-03T12:52:45.442Z,5.87
2019-04-03T12:55:15.159Z,5.20
2019-04-03T12:57:43.802Z,5.00
2019-04-03T13:00:13.640Z,4.40
2019-04-03T13:02:42.428Z,5.12
2019-04-03T13:05:11.464Z,4.87
2019-04-03T13:07:39.912Z,4.83
2019-04-03T13:10:09.498Z,4.95
2019-04-03T13:12:38.106Z,4.75
2019-04-03T13:15:10.441Z,5.05
2019-04-03T13:17:43.285Z,5.30
2019-04-03T13:20:11.306Z,5.40
2019-04-03T13:22:39.995Z,5.65
2019-04-03T13:25:10.120Z,5.33
2019-04-03T13:27:38.568Z,5.78
2019-04-03T13:30:11.459Z,5.35
2019-04-03T13:32:38.575Z,5.60
2019-04-03T13:35:07.919Z,5.05
2019-04-03T13:37:36.428Z,5.80
2019-04-03T13:40:09.316Z,5.12
2019-04-03T13:42:37.812Z,4.95
2019-04-03T13:45:10.447Z,5.22
2019-04-03T13:47:41.091Z,4.50
2019-04-03T13:50:10.852Z,5.17
2019-04-03T13:52:43.204Z,6.07
2019-04-03T13:55:10.193Z,5.33
2019-04-03T13:57:38.741Z,5.30
2019-04-03T14:00:18.170Z,4.92
2019-04-03T14:02:38.894Z,5.53
2019-04-03T14:05:08.050Z,5.83
2019-04-03T14:07:40.393Z,5.35
2019-04-03T14:10:08.764Z,6.05
2019-04-03T14:12:39.208Z,5.08
2019-04-03T14:15:07.885Z,5.15
2019-04-03T14:17:37.155Z,5.20
2019-04-03T14:20:10.840Z,5.47
2019-04-03T14:22:39.535Z,5.87
2019-04-03T14:25:19.985Z,6.55
2019-04-03T14:27:38.541Z,6.00
2019-04-03T14:30:11.468Z,6.20
2019-04-03T14:32:39.405Z,6.03
2019-04-03T14:35:33.702Z,6.15
2019-04-03T14:37:38.864Z,6.47
2019-04-03T14:40:10.994Z,6.70
2019-04-03T14:45:07.958Z,6.75
2019-04-03T14:47:36.568Z,6.22
2019-04-03T14:50:07.084Z,6.50
2019-04-03T14:52:36.235Z,6.60
2019-04-03T14:55:16.646Z,6.80
2019-04-03T14:57:37.204Z,6.62
2019-04-03T15:00:23.331Z,6.97
2019-04-03T15:02:40.121Z,6.55
2019-04-03T15:05:09.194Z,8.25
2019-04-03T15:07:37.701Z,6.70
2019-04-03T15:10:09.536Z,7.03
2019-04-03T15:12:39.938Z,7.05
2019-04-03T15:15:08.515Z,6.40
2019-04-03T15:17:37.984Z,6.40
2019-04-03T15:20:08.476Z,6.50
2019-04-03T15:22:37.146Z,6.55
2019-04-03T15:25:07.801Z,5.83
2019-04-03T15:27:36.322Z,6.53
2019-04-03T15:30:09.614Z,7.90
2019-04-03T15:32:37.617Z,8.70
2019-04-03T15:35:07.181Z,9.48
2019-04-03T15:37:36.082Z,7.80
2019-04-03T15:40:05.749Z,7.47
2019-04-03T15:42:34.661Z,7.40
2019-04-03T15:45:03.363Z,8.35
2019-04-03T15:47:37.070Z,12.07
2019-04-03T15:50:02.071Z,10.40
2019-04-03T15:52:30.528Z,12.20
2019-04-03T15:54:59.071Z,7.58
2019-04-03T15:57:27.687Z,7.62
2019-04-03T15:59:56.455Z,7.67
2019-04-03T16:02:28.987Z,7.55
2019-04-03T16:05:00.039Z,8.98
2019-04-03T16:07:31.688Z,8.40
2019-04-03T16:09:59.592Z,7.75
2019-04-03T16:12:28.127Z,8.25
2019-04-03T16:14:57.476Z,8.43
2019-04-03T16:17:26.113Z,5.78
2019-04-03T16:19:55.214Z,5.80
2019-04-03T16:22:23.862Z,5.15
2019-04-03T16:24:53.816Z,5.58
2019-04-03T16:27:23.072Z,5.22
2019-04-03T16:29:51.659Z,5.53
2019-04-03T16:32:21.024Z,5.25
2019-04-03T16:34:49.661Z,4.00
2019-04-03T16:37:20.510Z,3.67
2019-04-03T16:39:48.395Z,5.80
2019-04-03T16:42:17.158Z,6.95
2019-04-03T16:44:45.853Z,6.97
2019-04-03T16:47:14.514Z,7.70
2019-04-03T16:49:44.822Z,7.85
2019-04-03T16:52:13.275Z,7.45
2019-04-03T16:54:44.398Z,7.83
2019-04-03T16:57:14.976Z,7.28
2019-04-03T16:59:43.821Z,7.62
2019-04-03T17:02:12.488Z,6.85
2019-04-03T17:04:40.928Z,7.22
2019-04-03T17:07:09.794Z,7.55
2019-04-03T17:09:39.423Z,7.33
2019-04-03T17:12:07.968Z,7.55
2019-04-03T17:14:36.475Z,8.03
2019-04-03T17:17:05.040Z,7.42
2019-04-03T17:19:33.476Z,7.00
2019-04-03T17:22:01.978Z,7.30
2019-04-03T17:24:41.040Z,7.33
2019-04-03T17:27:00.667Z,7.62
2019-04-03T17:29:29.220Z,7.33
2019-04-03T17:31:58.848Z,7.10
2019-04-03T17:34:28.120Z,6.65
2019-04-03T17:36:56.775Z,6.58
2019-04-03T17:39:25.275Z,7.22
2019-04-03T17:41:56.529Z,6.62
2019-04-03T17:44:24.963Z,6.60
2019-04-03T17:46:53.441Z,9.80
2019-04-03T17:49:24.397Z,14.85
2019-04-03T17:51:52.261Z,10.60
2019-04-03T17:54:20.724Z,10.48
2019-04-03T17:56:49.234Z,7.83
2019-04-03T17:59:19.213Z,6.45
2019-04-03T18:01:47.695Z,5.97
2019-04-03T18:04:16.144Z,5.83
2019-04-03T18:06:46.605Z,5.65
2019-04-03T18:09:14.778Z,6.10
2019-04-03T18:11:43.216Z,6.05
2019-04-03T18:14:11.668Z,6.40
2019-04-03T18:16:40.211Z,7.03
2019-04-03T18:19:08.658Z,8.25
2019-04-03T18:21:37.104Z,8.23
2019-04-03T18:24:05.556Z,8.23
2019-04-03T18:26:34.072Z,8.53
2019-04-03T18:29:02.509Z,8.30
2019-04-03T18:31:31.052Z,7.70
2019-04-03T18:33:59.641Z,8.53
2019-04-03T18:36:31.110Z,8.65
2019-04-03T18:38:58.332Z,9.70
2019-04-03T18:41:27.155Z,8.80
2019-04-03T18:43:55.674Z,8.43
2019-04-03T18:46:32.191Z,8.60
2019-04-03T18:49:00.516Z,8.93
2019-04-03T18:51:24.464Z,9.47
2019-04-03T18:53:52.989Z,9.08
2019-04-03T18:56:21.514Z,7.97
2019-04-03T18:58:49.968Z,9.08
2019-04-03T19:01:18.617Z,10.23
2019-04-03T19:03:47.156Z,10.28
2019-04-03T19:06:15.592Z,9.33
2019-04-03T19:08:44.117Z,9.05
2019-04-03T19:11:12.635Z,10.70
2019-04-03T19:13:41.080Z,11.48
2019-04-03T19:16:09.544Z,10.15
2019-04-03T19:18:38.091Z,10.32
2019-04-03T19:21:06.607Z,11.90
2019-04-03T19:23:35.182Z,11.97
2019-04-03T19:26:03.617Z,10.75
2019-04-03T19:28:34.316Z,11.48
2019-04-03T19:31:02.251Z,10.98
2019-04-03T19:33:30.700Z,11.53
2019-04-03T19:35:59.347Z,19.32
2019-04-03T19:38:27.917Z,24.70
2019-04-03T19:40:56.462Z,16.12
2019-04-03T19:43:24.977Z,21.02
2019-04-03T19:45:53.453Z,16.00
2019-04-03T19:48:21.960Z,14.53
2019-04-03T19:50:51.420Z,9.43
2019-04-03T19:53:19.907Z,13.08
2019-04-03T19:55:48.432Z,14.68
2019-04-03T19:58:16.943Z,16.00
2019-04-03T20:00:45.412Z,15.05
2019-04-03T20:03:17.004Z,16.57
2019-04-03T20:05:45.521Z,14.58
2019-04-03T20:08:14.088Z,14.63
2019-04-03T20:10:42.544Z,16.40
2019-04-03T20:13:11.052Z,14.05
2019-04-03T20:15:39.670Z,14.93
2019-04-03T20:18:08.194Z,13.38
2019-04-03T20:20:36.632Z,14.38
2019-04-03T20:23:05.256Z,13.60
2019-04-03T20:25:33.764Z,11.75
2019-04-03T20:28:02.321Z,11.15
2019-04-03T20:30:32.705Z,11.63
2019-04-03T20:33:01.110Z,10.15
2019-04-03T20:35:29.548Z,9.55
2019-04-03T20:37:58.111Z,10.23
2019-04-03T20:40:26.557Z,10.48
2019-04-03T20:42:55.097Z,11.10
2019-04-03T20:45:23.680Z,11.50
2019-04-03T20:47:52.163Z,12.63
2019-04-03T20:50:20.745Z,11.03
2019-04-03T20:52:49.224Z,11.57
2019-04-03T20:55:17.744Z,11.33
2019-04-03T20:57:55.404Z,11.40
2019-04-03T21:00:18.576Z,11.70
2019-04-03T21:02:47.584Z,12.33
2019-04-03T21:05:18.175Z,12.93
2019-04-03T21:07:46.380Z,12.27
2019-04-03T21:10:15.117Z,12.60
2019-04-03T21:12:43.639Z,13.05
2019-04-03T21:15:14.264Z,13.75
2019-04-03T21:17:42.430Z,14.10
2019-04-03T21:20:11.311Z,14.15
2019-04-03T21:22:39.951Z,14.73
2019-04-03T21:25:09.317Z,14.15
2019-04-03T21:27:39.805Z,14.73
2019-04-03T21:30:09.486Z,14.65
2019-04-03T21:32:37.995Z,14.80
2019-04-03T21:35:06.766Z,14.68
2019-04-03T21:37:35.242Z,15.35
2019-04-03T21:40:05.051Z,16.17
2019-04-03T21:42:33.731Z,16.12
2019-04-03T21:45:02.804Z,15.35
2019-04-03T21:47:32.379Z,16.17
2019-04-03T21:50:03.439Z,16.23
2019-04-03T21:52:31.287Z,16.17
2019-04-03T21:54:59.723Z,15.78
2019-04-03T21:57:28.164Z,16.82
2019-04-03T21:59:56.644Z,16.65
2019-04-03T22:02:25.140Z,15.83
2019-04-03T22:04:53.954Z,15.50
2019-04-03T22:07:23.115Z,16.52
2019-04-03T22:09:51.562Z,15.93
2019-04-03T22:12:20.009Z,16.15
2019-04-03T22:14:48.480Z,16.80
2019-04-03T22:17:16.943Z,16.95
2019-04-03T22:19:45.499Z,17.30
2019-04-03T22:22:13.948Z,16.17
2019-04-03T22:24:42.392Z,16.60
2019-04-03T22:27:11.514Z,17.48
2019-04-03T22:29:40.581Z,18.77
2019-04-03T22:32:09.027Z,18.67
2019-04-03T22:34:37.473Z,17.52
2019-04-03T22:37:05.945Z,17.52
2019-04-03T22:39:34.391Z,18.45
2019-04-03T22:42:02.824Z,17.60
2019-04-03T22:44:31.303Z,21.27
2019-04-03T22:46:59.755Z,21.23
2019-04-03T22:49:28.203Z,27.00
2019-04-03T22:51:56.750Z,23.87
2019-04-03T22:54:25.189Z,18.10
2019-04-03T22:56:53.642Z,18.37
2019-04-03T22:59:24.333Z,21.77
2019-04-03T23:01:52.287Z,21.20
2019-04-03T23:04:20.731Z,20.48
2019-04-03T23:06:49.704Z,20.23
2019-04-03T23:09:24.737Z,19.15
2019-04-03T23:11:51.725Z,19.48
2019-04-03T23:14:20.269Z,18.85
2019-04-03T23:16:48.703Z,20.57
2019-04-03T23:19:17.958Z,20.10
2019-04-03T23:21:47.092Z,19.10
2019-04-03T23:24:15.555Z,20.37
2019-04-03T23:26:43.995Z,19.20
2019-04-03T23:29:12.539Z,20.23
2019-04-03T23:31:40.987Z,21.07
2019-04-03T23:34:09.427Z,21.12
2019-04-03T23:36:37.966Z,19.73
2019-04-03T23:39:08.161Z,20.92
2019-04-03T23:41:37.010Z,21.37
2019-04-03T23:44:05.551Z,20.32
2019-04-03T23:46:33.995Z,20.75
2019-04-03T23:49:02.535Z,19.77
2019-04-03T23:51:31.070Z,20.45
2019-04-03T23:54:02.598Z,21.27
2019-04-03T23:56:29.754Z,21.03
2019-04-03T23:58:58.225Z,21.17
